sensor_id;sensor_type;location;lat;lon;timestamp;temperature;humidity
9941;DHT22;5009;50.656;7.188;2023-04-03T04:00:46;4.60;96.40
9941;DHT22;5009;50.656;7.188;2023-04-03T04:03:12;4.50;96.70
9941;DHT22;5009;50.656;7.188;2023-04-03T04:05:37;4.50;94.10
9941;DHT22;5009;50.656;7.188;2023-04-03T04:08:03;4.50;92.80
9941;DHT22;5009;50.656;7.188;2023-04-03T04:10:28;4.50;92.70
9941;DHT22;5009;50.656;7.188;2023-04-03T04:12:54;4.50;92.50
9941;DHT22;5009;50.656;7.188;2023-04-03T04:15:20;4.40;92.40
9941;DHT22;5009;50.656;7.188;2023-04-03T04:17:47;4.50;92.20
9941;DHT22;5009;50.656;7.188;2023-04-03T04:20:12;4.40;92.30
9941;DHT22;5009;50.656;7.188;2023-04-03T04:22:38;4.40;92.10
9941;DHT22;5009;50.656;7.188;2023-04-03T04:25:04;4.40;92.20
9941;DHT22;5009;50.656;7.188;2023-04-03T04:27:30;4.40;92.10
9941;DHT22;5009;50.656;7.188;2023-04-03T04:29:56;4.40;92.30
9941;DHT22;5009;50.656;7.188;2023-04-03T04:32:22;4.30;92.20
9941;DHT22;5009;50.656;7.188;2023-04-03T04:34:48;4.30;92.50
9941;DHT22;5009;50.656;7.188;2023-04-03T04:37:13;4.30;92.50
9941;DHT22;5009;50.656;7.188;2023-04-03T04:39:39;4.30;92.50
9941;DHT22;5009;50.656;7.188;2023-04-03T04:42:04;4.30;92.70
9941;DHT22;5009;50.656;7.188;2023-04-03T04:44:32;4.20;92.80
9941;DHT22;5009;50.656;7.188;2023-04-03T04:46:57;4.20;92.90
9941;DHT22;5009;50.656;7.188;2023-04-03T04:49:23;4.20;92.90
9941;DHT22;5009;50.656;7.188;2023-04-03T04:51:48;4.20;92.70
9941;DHT22;5009;50.656;7.188;2023-04-03T04:54:14;4.20;93.20
9941;DHT22;5009;50.656;7.188;2023-04-03T04:56:40;4.20;93.30
9941;DHT22;5009;50.656;7.188;2023-04-03T04:59:06;4.10;93.30
9941;DHT22;5009;50.656;7.188;2023-04-03T05:01:31;4.10;93.50
9941;DHT22;5009;50.656;7.188;2023-04-03T05:03:57;4.10;93.40
9941;DHT22;5009;50.656;7.188;2023-04-03T05:06:22;4.10;93.70
9941;DHT22;5009;50.656;7.188;2023-04-03T05:08:48;4.00;93.40
9941;DHT22;5009;50.656;7.188;2023-04-03T05:11:13;4.00;93.40
9941;DHT22;5009;50.656;7.188;2023-04-03T05:13:39;4.00;93.50
9941;DHT22;5009;50.656;7.188;2023-04-03T05:16:05;4.00;93.50
9941;DHT22;5009;50.656;7.188;2023-04-03T05:18:30;4.00;93.50
9941;DHT22;5009;50.656;7.188;2023-04-03T05:20:56;3.90;93.80
9941;DHT22;5009;50.656;7.188;2023-04-03T05:23:21;3.90;93.80
9941;DHT22;5009;50.656;7.188;2023-04-03T05:25:47;3.90;93.90
9941;DHT22;5009;50.656;7.188;2023-04-03T05:28:14;3.90;94.50
9941;DHT22;5009;50.656;7.188;2023-04-03T05:30:40;3.90;94.60
9941;DHT22;5009;50.656;7.188;2023-04-03T05:33:05;3.90;94.60
9941;DHT22;5009;50.656;7.188;2023-04-03T05:35:31;4.00;94.60
9941;DHT22;5009;50.656;7.188;2023-04-03T05:37:57;4.20;94.70
9941;DHT22;5009;50.656;7.188;2023-04-03T05:40:23;4.20;94.10
9941;DHT22;5009;50.656;7.188;2023-04-03T05:42:48;4.30;93.50
9941;DHT22;5009;50.656;7.188;2023-04-03T05:45:14;4.40;93.50
9941;DHT22;5009;50.656;7.188;2023-04-03T05:47:39;4.60;92.70
9941;DHT22;5009;50.656;7.188;2023-04-03T05:50:05;4.70;92.10
9941;DHT22;5009;50.656;7.188;2023-04-03T05:52:37;4.90;92.40
9941;DHT22;5009;50.656;7.188;2023-04-03T05:55:03;5.10;92.20
9941;DHT22;5009;50.656;7.188;2023-04-03T05:57:29;5.40;91.90
9941;DHT22;5009;50.656;7.188;2023-04-03T05:59:55;5.60;92.00
9941;DHT22;5009;50.656;7.188;2023-04-03T06:02:21;5.80;90.10
9941;DHT22;5009;50.656;7.188;2023-04-03T06:04:48;5.80;88.60
9941;DHT22;5009;50.656;7.188;2023-04-03T06:07:18;6.30;89.40
9941;DHT22;5009;50.656;7.188;2023-04-03T06:09:46;6.90;88.80
9941;DHT22;5009;50.656;7.188;2023-04-03T06:12:12;7.80;84.80
9941;DHT22;5009;50.656;7.188;2023-04-03T06:14:38;9.20;81.40
9941;DHT22;5009;50.656;7.188;2023-04-03T06:17:04;10.70;75.70
9941;DHT22;5009;50.656;7.188;2023-04-03T06:19:30;11.70;71.20
9941;DHT22;5009;50.656;7.188;2023-04-03T06:21:56;12.00;67.40
9941;DHT22;5009;50.656;7.188;2023-04-03T06:24:22;12.20;66.70
9941;DHT22;5009;50.656;7.188;2023-04-03T06:26:49;11.90;64.40
9941;DHT22;5009;50.656;7.188;2023-04-03T06:29:17;11.40;65.30
9941;DHT22;5009;50.656;7.188;2023-04-03T06:31:43;11.20;64.50
9941;DHT22;5009;50.656;7.188;2023-04-03T06:34:09;11.00;64.70
9941;DHT22;5009;50.656;7.188;2023-04-03T06:36:36;10.60;64.00
9941;DHT22;5009;50.656;7.188;2023-04-03T06:39:02;10.70;65.50
9941;DHT22;5009;50.656;7.188;2023-04-03T06:41:28;11.20;65.70
9941;DHT22;5009;50.656;7.188;2023-04-03T06:43:54;12.50;63.40
9941;DHT22;5009;50.656;7.188;2023-04-03T06:46:22;13.90;60.60
9941;DHT22;5009;50.656;7.188;2023-04-03T06:48:48;14.90;58.00
9941;DHT22;5009;50.656;7.188;2023-04-03T06:51:23;15.50;56.50
9941;DHT22;5009;50.656;7.188;2023-04-03T06:53:50;15.10;55.10
9941;DHT22;5009;50.656;7.188;2023-04-03T06:56:17;15.70;52.40
9941;DHT22;5009;50.656;7.188;2023-04-03T06:58:43;14.70;53.00
9941;DHT22;5009;50.656;7.188;2023-04-03T07:01:10;16.50;52.70
9941;DHT22;5009;50.656;7.188;2023-04-03T07:03:37;17.50;50.70
9941;DHT22;5009;50.656;7.188;2023-04-03T07:06:04;16.70;48.10
9941;DHT22;5009;50.656;7.188;2023-04-03T07:08:30;17.80;48.30
9941;DHT22;5009;50.656;7.188;2023-04-03T07:10:56;17.30;46.70
9941;DHT22;5009;50.656;7.188;2023-04-03T07:13:21;18.50;47.30
9941;DHT22;5009;50.656;7.188;2023-04-03T07:15:47;19.20;45.00
9941;DHT22;5009;50.656;7.188;2023-04-03T07:18:13;19.70;43.70
9941;DHT22;5009;50.656;7.188;2023-04-03T07:20:39;18.70;43.20
9941;DHT22;5009;50.656;7.188;2023-04-03T07:23:05;19.80;43.30
9941;DHT22;5009;50.656;7.188;2023-04-03T07:25:31;20.10;42.00
9941;DHT22;5009;50.656;7.188;2023-04-03T07:27:57;19.70;42.00
9941;DHT22;5009;50.656;7.188;2023-04-03T07:30:23;18.60;41.50
9941;DHT22;5009;50.656;7.188;2023-04-03T07:32:48;19.20;42.00
9941;DHT22;5009;50.656;7.188;2023-04-03T07:35:14;19.00;41.80
9941;DHT22;5009;50.656;7.188;2023-04-03T07:37:40;17.00;42.00
9941;DHT22;5009;50.656;7.188;2023-04-03T07:40:07;16.20;42.50
9941;DHT22;5009;50.656;7.188;2023-04-03T07:42:34;14.70;43.00
9941;DHT22;5009;50.656;7.188;2023-04-03T07:45:00;14.00;43.90
9941;DHT22;5009;50.656;7.188;2023-04-03T07:47:26;13.10;45.10
9941;DHT22;5009;50.656;7.188;2023-04-03T07:49:51;11.90;45.90
9941;DHT22;5009;50.656;7.188;2023-04-03T07:52:17;12.00;47.00
9941;DHT22;5009;50.656;7.188;2023-04-03T07:54:42;11.80;47.00
9941;DHT22;5009;50.656;7.188;2023-04-03T07:57:08;11.80;47.70
9941;DHT22;5009;50.656;7.188;2023-04-03T07:59:34;12.70;48.20
9941;DHT22;5009;50.656;7.188;2023-04-03T08:01:59;12.70;47.00
9941;DHT22;5009;50.656;7.188;2023-04-03T08:04:25;13.60;47.00
9941;DHT22;5009;50.656;7.188;2023-04-03T08:06:51;14.50;46.30
9941;DHT22;5009;50.656;7.188;2023-04-03T08:09:17;14.40;45.30
9941;DHT22;5009;50.656;7.188;2023-04-03T08:11:43;15.90;45.80
9941;DHT22;5009;50.656;7.188;2023-04-03T08:14:09;15.80;44.10
9941;DHT22;5009;50.656;7.188;2023-04-03T08:16:40;16.30;44.80
9941;DHT22;5009;50.656;7.188;2023-04-03T08:19:07;17.90;44.20
9941;DHT22;5009;50.656;7.188;2023-04-03T08:21:33;17.70;43.00
9941;DHT22;5009;50.656;7.188;2023-04-03T08:23:58;16.60;42.00
9941;DHT22;5009;50.656;7.188;2023-04-03T08:26:24;17.90;43.60
9941;DHT22;5009;50.656;7.188;2023-04-03T08:28:51;19.10;42.50
9941;DHT22;5009;50.656;7.188;2023-04-03T08:31:18;20.00;41.90
9941;DHT22;5009;50.656;7.188;2023-04-03T08:33:45;20.10;41.40
9941;DHT22;5009;50.656;7.188;2023-04-03T08:36:37;20.80;41.40
9941;DHT22;5009;50.656;7.188;2023-04-03T08:39:03;18.80;40.70
9941;DHT22;5009;50.656;7.188;2023-04-03T08:41:45;16.90;40.30
9941;DHT22;5009;50.656;7.188;2023-04-03T08:44:39;14.50;42.00
9941;DHT22;5009;50.656;7.188;2023-04-03T08:47:39;13.80;42.70
9941;DHT22;5009;50.656;7.188;2023-04-03T08:50:12;12.60;44.30
9941;DHT22;5009;50.656;7.188;2023-04-03T08:52:40;12.10;45.30
9941;DHT22;5009;50.656;7.188;2023-04-03T08:57:40;12.20;46.80
9941;DHT22;5009;50.656;7.188;2023-04-03T09:02:49;11.80;46.30
9941;DHT22;5009;50.656;7.188;2023-04-03T09:05:44;11.40;47.10
9941;DHT22;5009;50.656;7.188;2023-04-03T09:08:22;11.90;47.40
9941;DHT22;5009;50.656;7.188;2023-04-03T09:10:49;11.60;47.50
9941;DHT22;5009;50.656;7.188;2023-04-03T09:13:39;11.20;47.20
9941;DHT22;5009;50.656;7.188;2023-04-03T09:16:28;10.60;47.30
9941;DHT22;5009;50.656;7.188;2023-04-03T09:24:39;10.00;49.10
9941;DHT22;5009;50.656;7.188;2023-04-03T09:27:10;10.50;47.50
9941;DHT22;5009;50.656;7.188;2023-04-03T09:29:40;10.50;46.70
9941;DHT22;5009;50.656;7.188;2023-04-03T09:32:27;10.00;46.60
9941;DHT22;5009;50.656;7.188;2023-04-03T09:34:55;10.00;47.60
9941;DHT22;5009;50.656;7.188;2023-04-03T09:37:43;9.90;48.60
9941;DHT22;5009;50.656;7.188;2023-04-03T09:40:28;10.10;47.40
9941;DHT22;5009;50.656;7.188;2023-04-03T09:42:56;9.40;47.50
9941;DHT22;5009;50.656;7.188;2023-04-03T09:45:33;8.70;47.60
9941;DHT22;5009;50.656;7.188;2023-04-03T09:50:38;8.80;49.40
9941;DHT22;5009;50.656;7.188;2023-04-03T09:58:50;8.70;49.30
9941;DHT22;5009;50.656;7.188;2023-04-03T10:04:12;8.70;49.30
9941;DHT22;5009;50.656;7.188;2023-04-03T10:06:56;8.80;49.50
9941;DHT22;5009;50.656;7.188;2023-04-03T10:09:30;8.80;49.60
9941;DHT22;5009;50.656;7.188;2023-04-03T10:12:10;8.80;49.40
9941;DHT22;5009;50.656;7.188;2023-04-03T10:15:00;8.90;49.00
9941;DHT22;5009;50.656;7.188;2023-04-03T10:17:56;8.80;48.30
9941;DHT22;5009;50.656;7.188;2023-04-03T10:20:40;8.60;48.30
9941;DHT22;5009;50.656;7.188;2023-04-03T10:26:07;8.50;47.70
9941;DHT22;5009;50.656;7.188;2023-04-03T10:34:05;8.20;47.20
9941;DHT22;5009;50.656;7.188;2023-04-03T10:39:23;8.00;47.40
9941;DHT22;5009;50.656;7.188;2023-04-03T10:55:35;8.00;46.00
9941;DHT22;5009;50.656;7.188;2023-04-03T10:58:03;8.00;46.10
9941;DHT22;5009;50.656;7.188;2023-04-03T11:00:40;7.90;46.30
9941;DHT22;5009;50.656;7.188;2023-04-03T11:03:16;7.90;46.40
9941;DHT22;5009;50.656;7.188;2023-04-03T11:05:47;7.90;46.30
9941;DHT22;5009;50.656;7.188;2023-04-03T11:08:28;7.80;46.30
9941;DHT22;5009;50.656;7.188;2023-04-03T11:11:26;7.90;46.90
9941;DHT22;5009;50.656;7.188;2023-04-03T11:14:17;8.10;46.80
9941;DHT22;5009;50.656;7.188;2023-04-03T11:16:48;8.20;46.60
9941;DHT22;5009;50.656;7.188;2023-04-03T11:19:26;8.20;46.60
9941;DHT22;5009;50.656;7.188;2023-04-03T11:21:57;8.20;46.90
9941;DHT22;5009;50.656;7.188;2023-04-03T11:24:28;8.00;46.30
9941;DHT22;5009;50.656;7.188;2023-04-03T11:26:56;7.90;46.00
9941;DHT22;5009;50.656;7.188;2023-04-03T11:29:32;8.10;46.00
9941;DHT22;5009;50.656;7.188;2023-04-03T11:32:09;8.10;46.00
9941;DHT22;5009;50.656;7.188;2023-04-03T11:34:41;8.20;45.70
9941;DHT22;5009;50.656;7.188;2023-04-03T11:37:31;8.30;46.00
9941;DHT22;5009;50.656;7.188;2023-04-03T11:43:07;8.40;44.90
9941;DHT22;5009;50.656;7.188;2023-04-03T11:50:47;8.60;45.30
9941;DHT22;5009;50.656;7.188;2023-04-03T11:58:16;8.30;43.70
9941;DHT22;5009;50.656;7.188;2023-04-03T12:16:26;8.50;42.80
9941;DHT22;5009;50.656;7.188;2023-04-03T12:24:24;8.50;43.70
9941;DHT22;5009;50.656;7.188;2023-04-03T12:34:43;8.80;44.10
9941;DHT22;5009;50.656;7.188;2023-04-03T12:45:49;8.60;43.80
9941;DHT22;5009;50.656;7.188;2023-04-03T12:48:18;8.60;43.50
9941;DHT22;5009;50.656;7.188;2023-04-03T12:50:46;8.60;43.80
9941;DHT22;5009;50.656;7.188;2023-04-03T12:53:13;8.70;44.30
9941;DHT22;5009;50.656;7.188;2023-04-03T12:55:39;8.70;43.90
9941;DHT22;5009;50.656;7.188;2023-04-03T12:58:16;8.80;45.00
9941;DHT22;5009;50.656;7.188;2023-04-03T13:00:42;8.80;44.70
9941;DHT22;5009;50.656;7.188;2023-04-03T13:03:22;8.90;44.70
9941;DHT22;5009;50.656;7.188;2023-04-03T13:05:50;9.00;45.60
9941;DHT22;5009;50.656;7.188;2023-04-03T13:08:17;9.00;44.80
9941;DHT22;5009;50.656;7.188;2023-04-03T13:11:03;9.10;45.20
9941;DHT22;5009;50.656;7.188;2023-04-03T13:13:30;9.00;44.40
9941;DHT22;5009;50.656;7.188;2023-04-03T13:15:56;9.00;44.60
9941;DHT22;5009;50.656;7.188;2023-04-03T13:20:51;9.00;44.10
9941;DHT22;5009;50.656;7.188;2023-04-03T13:23:17;9.00;43.80
9941;DHT22;5009;50.656;7.188;2023-04-03T13:25:46;9.00;43.30
9941;DHT22;5009;50.656;7.188;2023-04-03T13:28:19;9.00;43.30
9941;DHT22;5009;50.656;7.188;2023-04-03T13:31:19;8.90;43.20
9941;DHT22;5009;50.656;7.188;2023-04-03T13:34:02;8.90;43.80
9941;DHT22;5009;50.656;7.188;2023-04-03T13:36:34;9.00;43.90
9941;DHT22;5009;50.656;7.188;2023-04-03T13:41:38;8.90;44.00
9941;DHT22;5009;50.656;7.188;2023-04-03T13:44:32;8.90;43.90
9941;DHT22;5009;50.656;7.188;2023-04-03T13:47:14;8.90;44.60
9941;DHT22;5009;50.656;7.188;2023-04-03T13:49:45;8.90;43.90
9941;DHT22;5009;50.656;7.188;2023-04-03T13:52:29;9.00;43.90
9941;DHT22;5009;50.656;7.188;2023-04-03T13:55:00;8.90;43.50
9941;DHT22;5009;50.656;7.188;2023-04-03T13:57:27;9.00;43.40
9941;DHT22;5009;50.656;7.188;2023-04-03T13:59:53;9.00;43.40
9941;DHT22;5009;50.656;7.188;2023-04-03T14:02:29;9.00;43.50
9941;DHT22;5009;50.656;7.188;2023-04-03T14:04:58;9.00;43.80
9941;DHT22;5009;50.656;7.188;2023-04-03T14:07:28;9.00;43.40
9941;DHT22;5009;50.656;7.188;2023-04-03T14:09:55;9.00;43.70
9941;DHT22;5009;50.656;7.188;2023-04-03T14:12:27;9.00;43.80
9941;DHT22;5009;50.656;7.188;2023-04-03T14:14:53;8.90;43.70
9941;DHT22;5009;50.656;7.188;2023-04-03T14:17:23;9.00;44.00
9941;DHT22;5009;50.656;7.188;2023-04-03T14:19:50;8.90;43.70
9941;DHT22;5009;50.656;7.188;2023-04-03T14:22:23;9.00;44.50
9941;DHT22;5009;50.656;7.188;2023-04-03T14:24:51;9.10;44.50
9941;DHT22;5009;50.656;7.188;2023-04-03T14:27:26;9.20;44.40
9941;DHT22;5009;50.656;7.188;2023-04-03T14:29:53;9.20;44.10
9941;DHT22;5009;50.656;7.188;2023-04-03T14:32:21;9.10;44.10
9941;DHT22;5009;50.656;7.188;2023-04-03T14:34:48;9.10;44.40
9941;DHT22;5009;50.656;7.188;2023-04-03T14:37:16;9.20;44.40
9941;DHT22;5009;50.656;7.188;2023-04-03T14:39:43;9.20;44.50
9941;DHT22;5009;50.656;7.188;2023-04-03T14:42:14;9.20;44.30
9941;DHT22;5009;50.656;7.188;2023-04-03T14:44:40;9.20;44.30
9941;DHT22;5009;50.656;7.188;2023-04-03T14:47:10;9.20;44.20
9941;DHT22;5009;50.656;7.188;2023-04-03T14:49:36;9.20;44.40
9941;DHT22;5009;50.656;7.188;2023-04-03T14:52:02;9.20;44.70
9941;DHT22;5009;50.656;7.188;2023-04-03T14:54:27;9.20;44.40
9941;DHT22;5009;50.656;7.188;2023-04-03T14:56:55;9.20;44.20
9941;DHT22;5009;50.656;7.188;2023-04-03T14:59:22;9.20;44.20
9941;DHT22;5009;50.656;7.188;2023-04-03T15:01:48;9.20;44.10
9941;DHT22;5009;50.656;7.188;2023-04-03T15:04:19;9.20;43.90
9941;DHT22;5009;50.656;7.188;2023-04-03T15:06:46;9.20;44.10
9941;DHT22;5009;50.656;7.188;2023-04-03T15:09:19;9.30;44.00
9941;DHT22;5009;50.656;7.188;2023-04-03T15:11:45;9.30;43.90
9941;DHT22;5009;50.656;7.188;2023-04-03T15:14:10;9.30;43.40
9941;DHT22;5009;50.656;7.188;2023-04-03T15:16:36;9.30;43.60
9941;DHT22;5009;50.656;7.188;2023-04-03T15:19:02;9.30;44.00
9941;DHT22;5009;50.656;7.188;2023-04-03T15:21:28;9.20;44.10
9941;DHT22;5009;50.656;7.188;2023-04-03T15:23:53;9.30;44.00
9941;DHT22;5009;50.656;7.188;2023-04-03T15:26:19;9.20;43.50
9941;DHT22;5009;50.656;7.188;2023-04-03T15:28:46;9.20;42.80
9941;DHT22;5009;50.656;7.188;2023-04-03T15:31:12;9.10;42.60
9941;DHT22;5009;50.656;7.188;2023-04-03T15:33:38;9.10;42.70
9941;DHT22;5009;50.656;7.188;2023-04-03T15:36:04;9.10;42.70
9941;DHT22;5009;50.656;7.188;2023-04-03T15:38:30;9.10;42.80
9941;DHT22;5009;50.656;7.188;2023-04-03T15:40:56;9.10;43.20
9941;DHT22;5009;50.656;7.188;2023-04-03T15:43:21;9.20;43.30
9941;DHT22;5009;50.656;7.188;2023-04-03T15:45:48;9.20;43.30
9941;DHT22;5009;50.656;7.188;2023-04-03T15:48:14;9.20;43.30
9941;DHT22;5009;50.656;7.188;2023-04-03T15:50:39;9.20;43.30
9941;DHT22;5009;50.656;7.188;2023-04-03T15:53:05;9.20;43.00
9941;DHT22;5009;50.656;7.188;2023-04-03T15:55:33;9.10;43.00
9941;DHT22;5009;50.656;7.188;2023-04-03T15:58:00;9.10;42.90
9941;DHT22;5009;50.656;7.188;2023-04-03T16:00:26;9.10;42.60
9941;DHT22;5009;50.656;7.188;2023-04-03T16:02:56;9.10;43.30
9941;DHT22;5009;50.656;7.188;2023-04-03T16:05:23;9.10;43.50
9941;DHT22;5009;50.656;7.188;2023-04-03T16:07:49;9.20;43.80
9941;DHT22;5009;50.656;7.188;2023-04-03T16:10:16;9.20;43.50
9941;DHT22;5009;50.656;7.188;2023-04-03T16:12:42;9.20;43.00
9941;DHT22;5009;50.656;7.188;2023-04-03T16:15:08;9.10;42.90
9941;DHT22;5009;50.656;7.188;2023-04-03T16:17:35;9.10;43.50
9941;DHT22;5009;50.656;7.188;2023-04-03T16:20:02;9.20;43.80
9941;DHT22;5009;50.656;7.188;2023-04-03T16:22:29;9.10;43.30
9941;DHT22;5009;50.656;7.188;2023-04-03T16:24:54;9.10;43.10
9941;DHT22;5009;50.656;7.188;2023-04-03T16:27:21;9.10;43.50
9941;DHT22;5009;50.656;7.188;2023-04-03T16:29:47;9.10;43.30
9941;DHT22;5009;50.656;7.188;2023-04-03T16:32:13;9.10;43.20
9941;DHT22;5009;50.656;7.188;2023-04-03T16:34:39;9.10;43.30
9941;DHT22;5009;50.656;7.188;2023-04-03T16:37:06;9.10;43.50
9941;DHT22;5009;50.656;7.188;2023-04-03T16:39:34;9.10;43.10
9941;DHT22;5009;50.656;7.188;2023-04-03T16:42:00;9.00;42.90
9941;DHT22;5009;50.656;7.188;2023-04-03T16:44:25;9.00;42.60
9941;DHT22;5009;50.656;7.188;2023-04-03T16:46:51;9.00;42.90
9941;DHT22;5009;50.656;7.188;2023-04-03T16:49:17;9.00;43.20
9941;DHT22;5009;50.656;7.188;2023-04-03T16:51:42;9.00;43.00
9941;DHT22;5009;50.656;7.188;2023-04-03T16:54:08;8.90;43.00
9941;DHT22;5009;50.656;7.188;2023-04-03T16:56:36;8.80;43.20
9941;DHT22;5009;50.656;7.188;2023-04-03T16:59:01;8.80;43.30
9941;DHT22;5009;50.656;7.188;2023-04-03T17:01:27;8.80;43.40
9941;DHT22;5009;50.656;7.188;2023-04-03T17:03:53;8.80;43.30
9941;DHT22;5009;50.656;7.188;2023-04-03T17:06:20;8.80;43.50
9941;DHT22;5009;50.656;7.188;2023-04-03T17:08:47;8.70;43.70
9941;DHT22;5009;50.656;7.188;2023-04-03T17:11:14;8.70;44.00
9941;DHT22;5009;50.656;7.188;2023-04-03T17:13:40;8.80;44.30
9941;DHT22;5009;50.656;7.188;2023-04-03T17:16:08;8.70;44.00
9941;DHT22;5009;50.656;7.188;2023-04-03T17:18:35;8.60;44.20
9941;DHT22;5009;50.656;7.188;2023-04-03T17:21:02;8.60;44.10
9941;DHT22;5009;50.656;7.188;2023-04-03T17:23:28;8.60;43.50
9941;DHT22;5009;50.656;7.188;2023-04-03T17:25:54;8.50;43.10
9941;DHT22;5009;50.656;7.188;2023-04-03T17:28:21;8.50;43.00
9941;DHT22;5009;50.656;7.188;2023-04-03T17:30:53;8.40;43.10
9941;DHT22;5009;50.656;7.188;2023-04-03T17:33:18;8.40;43.40
9941;DHT22;5009;50.656;7.188;2023-04-03T17:35:44;8.30;43.60
9941;DHT22;5009;50.656;7.188;2023-04-03T17:38:10;8.30;43.90
9941;DHT22;5009;50.656;7.188;2023-04-03T17:40:35;8.30;44.20
9941;DHT22;5009;50.656;7.188;2023-04-03T17:43:01;8.30;44.30
9941;DHT22;5009;50.656;7.188;2023-04-03T17:45:26;8.20;44.30
9941;DHT22;5009;50.656;7.188;2023-04-03T17:47:52;8.20;44.20
9941;DHT22;5009;50.656;7.188;2023-04-03T17:50:18;8.20;44.50
9941;DHT22;5009;50.656;7.188;2023-04-03T17:52:44;8.10;44.40
9941;DHT22;5009;50.656;7.188;2023-04-03T17:55:09;8.10;44.60
9941;DHT22;5009;50.656;7.188;2023-04-03T17:57:35;8.00;44.70
9941;DHT22;5009;50.656;7.188;2023-04-03T18:00:01;8.00;44.30
9941;DHT22;5009;50.656;7.188;2023-04-03T18:02:26;7.90;44.50
9941;DHT22;5009;50.656;7.188;2023-04-03T18:04:52;7.90;44.60
9941;DHT22;5009;50.656;7.188;2023-04-03T18:07:18;7.90;44.70
9941;DHT22;5009;50.656;7.188;2023-04-03T18:09:45;7.80;44.90
9941;DHT22;5009;50.656;7.188;2023-04-03T18:12:11;7.80;44.90
9941;DHT22;5009;50.656;7.188;2023-04-03T18:14:38;7.70;44.80
9941;DHT22;5009;50.656;7.188;2023-04-03T18:17:04;7.70;45.10
9941;DHT22;5009;50.656;7.188;2023-04-03T18:19:30;7.60;45.30
9941;DHT22;5009;50.656;7.188;2023-04-03T18:21:58;7.60;45.50
9941;DHT22;5009;50.656;7.188;2023-04-03T18:24:26;7.50;45.40
9941;DHT22;5009;50.656;7.188;2023-04-03T18:27:00;7.50;45.60
9941;DHT22;5009;50.656;7.188;2023-04-03T18:29:29;7.40;45.50
9941;DHT22;5009;50.656;7.188;2023-04-03T18:31:56;7.40;45.50
9941;DHT22;5009;50.656;7.188;2023-04-03T18:34:23;7.40;45.70
9941;DHT22;5009;50.656;7.188;2023-04-03T18:36:48;7.30;45.70
9941;DHT22;5009;50.656;7.188;2023-04-03T18:39:14;7.30;46.00
9941;DHT22;5009;50.656;7.188;2023-04-03T18:41:39;7.20;46.10
9941;DHT22;5009;50.656;7.188;2023-04-03T18:44:09;7.20;46.00
9941;DHT22;5009;50.656;7.188;2023-04-03T18:46:35;7.20;46.10
9941;DHT22;5009;50.656;7.188;2023-04-03T18:49:01;7.10;46.30
9941;DHT22;5009;50.656;7.188;2023-04-03T18:51:28;7.10;46.50
9941;DHT22;5009;50.656;7.188;2023-04-03T18:53:54;7.00;46.50
9941;DHT22;5009;50.656;7.188;2023-04-03T18:56:19;7.00;46.70
9941;DHT22;5009;50.656;7.188;2023-04-03T18:58:46;7.00;47.00
9941;DHT22;5009;50.656;7.188;2023-04-03T19:01:13;6.90;47.10
9941;DHT22;5009;50.656;7.188;2023-04-03T19:03:38;6.90;47.30
9941;DHT22;5009;50.656;7.188;2023-04-03T19:06:05;6.90;47.40
9941;DHT22;5009;50.656;7.188;2023-04-03T19:08:31;6.80;47.40
9941;DHT22;5009;50.656;7.188;2023-04-03T19:10:57;6.80;47.30
9941;DHT22;5009;50.656;7.188;2023-04-03T19:13:23;6.70;47.40
9941;DHT22;5009;50.656;7.188;2023-04-03T19:15:48;6.70;47.40
9941;DHT22;5009;50.656;7.188;2023-04-03T19:18:16;6.70;47.60
9941;DHT22;5009;50.656;7.188;2023-04-03T19:20:41;6.60;47.60
9941;DHT22;5009;50.656;7.188;2023-04-03T19:23:07;6.60;48.00
9941;DHT22;5009;50.656;7.188;2023-04-03T19:25:33;6.50;48.10
9941;DHT22;5009;50.656;7.188;2023-04-03T19:27:58;6.50;48.40
9941;DHT22;5009;50.656;7.188;2023-04-03T19:30:25;6.50;48.70
9941;DHT22;5009;50.656;7.188;2023-04-03T19:32:51;6.40;48.70
9941;DHT22;5009;50.656;7.188;2023-04-03T19:35:16;6.40;48.90
9941;DHT22;5009;50.656;7.188;2023-04-03T19:37:42;6.30;49.00
9941;DHT22;5009;50.656;7.188;2023-04-03T19:40:08;6.30;48.90
9941;DHT22;5009;50.656;7.188;2023-04-03T19:42:34;6.30;49.10
9941;DHT22;5009;50.656;7.188;2023-04-03T19:45:05;6.20;49.20
9941;DHT22;5009;50.656;7.188;2023-04-03T19:47:32;6.20;49.50
9941;DHT22;5009;50.656;7.188;2023-04-03T19:49:58;6.10;49.70
9941;DHT22;5009;50.656;7.188;2023-04-03T19:52:24;6.10;49.80
9941;DHT22;5009;50.656;7.188;2023-04-03T19:54:49;6.00;49.80
9941;DHT22;5009;50.656;7.188;2023-04-03T19:57:15;6.00;49.90
9941;DHT22;5009;50.656;7.188;2023-04-03T19:59:40;6.00;50.10
9941;DHT22;5009;50.656;7.188;2023-04-03T20:02:06;5.90;50.20
9941;DHT22;5009;50.656;7.188;2023-04-03T20:04:31;5.90;50.20
9941;DHT22;5009;50.656;7.188;2023-04-03T20:06:57;5.90;50.40
9941;DHT22;5009;50.656;7.188;2023-04-03T20:09:23;5.80;50.50
9941;DHT22;5009;50.656;7.188;2023-04-03T20:11:48;5.80;50.70
9941;DHT22;5009;50.656;7.188;2023-04-03T20:14:15;5.70;50.80
9941;DHT22;5009;50.656;7.188;2023-04-03T20:16:42;5.70;51.10
9941;DHT22;5009;50.656;7.188;2023-04-03T20:19:08;5.70;51.60
9941;DHT22;5009;50.656;7.188;2023-04-03T20:21:34;5.70;51.70
9941;DHT22;5009;50.656;7.188;2023-04-03T20:24:01;5.70;52.00
9941;DHT22;5009;50.656;7.188;2023-04-03T20:26:28;5.60;51.70
9941;DHT22;5009;50.656;7.188;2023-04-03T20:28:57;5.60;51.50
9941;DHT22;5009;50.656;7.188;2023-04-03T20:31:24;5.50;51.70
9941;DHT22;5009;50.656;7.188;2023-04-03T20:33:51;5.50;51.70
9941;DHT22;5009;50.656;7.188;2023-04-03T20:36:17;5.40;51.60
9941;DHT22;5009;50.656;7.188;2023-04-03T20:38:44;5.50;51.90
9941;DHT22;5009;50.656;7.188;2023-04-03T20:41:10;5.50;52.20
9941;DHT22;5009;50.656;7.188;2023-04-03T20:43:37;5.50;52.40
9941;DHT22;5009;50.656;7.188;2023-04-03T20:46:04;5.40;52.40
9941;DHT22;5009;50.656;7.188;2023-04-03T20:48:30;5.40;52.50
9941;DHT22;5009;50.656;7.188;2023-04-03T20:50:57;5.30;52.80
9941;DHT22;5009;50.656;7.188;2023-04-03T20:53:23;5.30;52.80
9941;DHT22;5009;50.656;7.188;2023-04-03T20:55:56;5.20;52.90
9941;DHT22;5009;50.656;7.188;2023-04-03T20:58:28;5.20;53.00
